Minneapolis, Minnesota
Traffic Map
Current Weather Conditions
Minneapolis, Minnesota
Broken Clouds
Broken Clouds
14°
Feels Like: 4°
Wind Chill: Ceiling: 9000
Heat Index: 14° Visibility: 10mi
Dew Point: Wind: 7mph
Humidity: 64% Direction: 170° (S)
Pressure: 30.08in Gusts: 0mph
Raw Report DataKMSP 061253Z 17006KT 10SM BKN090 BKN190 M10/M16 A3008 RMK AO2 SLP205 T11001156
Traffic Incident Summary
Active as of:
Severity:
Category:
InformationThere was an issue retrieving the traffic information for this location. Please try a different location or try again shortly.
Advertisements
Track Severe Weather on mobile